Time;durP1;ratioP1;P1;durP2;ratioP2;P2;SDS_P1;SDS_P2;PMS_P1;PMS_P2;Temp;Humidity;BMP_temperature;BMP_pressure;BME280_temperature;BME280_humidity;BME280_pressure;Samples;Min_cycle;Max_cycle;Signal;HPM_P1;HPM_P2
2021/05/23 00:01:06;;;;;;;0.55;0.25;;;13.10;99.90;;;;;;5059215;28;20499;-51
2021/05/23 00:03:33;;;;;;;0.30;0.30;;;12.90;99.90;;;;;;5065909;28;20028;-52
2021/05/23 00:05:59;;;;;;;0.50;0.30;;;12.80;99.90;;;;;;5065040;28;20013;-49
2021/05/23 00:08:26;;;;;;;0.22;0.20;;;12.90;99.90;;;;;;5066164;28;20082;-51
2021/05/23 00:10:52;;;;;;;0.28;0.25;;;12.80;99.90;;;;;;5065370;28;20037;-51
2021/05/23 00:13:23;;;;;;;0.20;0.20;;;12.80;99.90;;;;;;5065586;28;20031;-52
2021/05/23 00:16:10;;;;;;;0.43;0.22;;;12.90;99.90;;;;;;5065939;28;20533;-52
2021/05/23 00:18:38;;;;;;;0.35;0.30;;;13.00;99.90;;;;;;5065846;28;20036;-51
2021/05/23 00:21:05;;;;;;;0.35;0.20;;;12.90;99.90;;;;;;5064300;28;20494;-53
2021/05/23 00:23:33;;;;;;;0.30;0.30;;;12.90;99.90;;;;;;5064938;28;20044;-51
2021/05/23 00:25:59;;;;;;;0.22;0.22;;;12.90;99.90;;;;;;5065455;28;20024;-50
2021/05/23 00:28:27;;;;;;;0.30;0.25;;;12.90;99.90;;;;;;5065436;28;20043;-51
2021/05/23 00:30:52;;;;;;;0.30;0.30;;;12.80;99.90;;;;;;5065020;28;20119;-51
2021/05/23 00:33:19;;;;;;;0.35;0.30;;;12.90;99.90;;;;;;5064774;28;20108;-50
2021/05/23 00:35:45;;;;;;;0.17;0.17;;;12.90;99.90;;;;;;5065289;28;20024;-51
2021/05/23 00:38:12;;;;;;;0.70;0.30;;;13.00;99.90;;;;;;5065234;28;20044;-51
2021/05/23 00:40:38;;;;;;;1.05;0.30;;;13.10;99.90;;;;;;5064980;28;20081;-50
2021/05/23 00:43:10;;;;;;;0.20;0.20;;;13.10;99.90;;;;;;5065110;28;20071;-53
2021/05/23 00:45:36;;;;;;;0.20;0.20;;;13.30;99.90;;;;;;5063952;28;20020;-53
2021/05/23 00:48:03;;;;;;;0.20;0.20;;;13.30;99.90;;;;;;5064928;28;20067;-51
2021/05/23 00:50:29;;;;;;;0.40;0.22;;;13.10;99.90;;;;;;5064824;28;20406;-52
2021/05/23 00:52:56;;;;;;;0.20;0.20;;;13.10;99.90;;;;;;5064356;28;20190;-53
2021/05/23 00:55:22;;;;;;;1.15;0.30;;;13.20;99.90;;;;;;5064767;28;20111;-51
2021/05/23 00:57:49;;;;;;;0.25;0.25;;;13.20;99.90;;;;;;5065304;28;20028;-53
2021/05/23 01:00:49;;;;;;;0.20;0.20;;;13.30;99.90;;;;;;5064245;28;20399;-49
2021/05/23 01:03:43;;;;;;;0.20;0.20;;;13.30;99.90;;;;;;5063670;28;20506;-49
2021/05/23 01:06:11;;;;;;;0.35;0.30;;;13.30;99.90;;;;;;5045168;28;20025;-50
2021/05/23 01:08:38;;;;;;;0.20;0.20;;;13.20;99.90;;;;;;5060958;28;20282;-49
2021/05/23 01:11:16;;;;;;;0.32;0.32;;;13.10;99.90;;;;;;5065189;28;20039;-51
2021/05/23 01:13:57;;;;;;;0.30;0.20;;;13.10;99.90;;;;;;5064578;28;20115;-49
2021/05/23 01:16:34;;;;;;;0.28;0.28;;;13.10;99.90;;;;;;5065426;28;20251;-49
2021/05/23 01:19:35;;;;;;;0.38;0.30;;;13.10;99.90;;;;;;5063998;28;20090;-48
2021/05/23 01:22:32;;;;;;;0.60;0.40;;;13.10;99.90;;;;;;5064012;28;20028;-49
2021/05/23 01:25:10;;;;;;;0.45;0.25;;;13.10;99.90;;;;;;5063828;28;20111;-49
2021/05/23 01:27:44;;;;;;;0.50;0.40;;;13.20;99.90;;;;;;5065270;28;20024;-49
2021/05/23 01:30:32;;;;;;;0.20;0.20;;;13.20;99.90;;;;;;5064186;28;20113;-52
2021/05/23 01:33:00;;;;;;;0.30;0.30;;;13.00;99.90;;;;;;5064833;28;20052;-49
2021/05/23 01:35:40;;;;;;;0.30;0.30;;;13.10;99.90;;;;;;5063842;28;20097;-49
2021/05/23 01:38:28;;;;;;;0.20;0.20;;;13.00;99.90;;;;;;5064000;28;20069;-49
2021/05/23 01:41:00;;;;;;;0.30;0.30;;;12.80;99.90;;;;;;5065430;28;20024;-48
2021/05/23 01:43:27;;;;;;;0.55;0.52;;;12.90;99.90;;;;;;5065217;28;20024;-46
2021/05/23 01:45:53;;;;;;;1.60;0.32;;;13.00;99.90;;;;;;5064896;28;20063;-46
2021/05/23 01:48:20;;;;;;;0.30;0.30;;;13.10;99.90;;;;;;5065619;28;20453;-46
2021/05/23 01:50:47;;;;;;;1.85;0.30;;;13.10;99.90;;;;;;5065145;28;20041;-46
2021/05/23 01:53:13;;;;;;;0.35;0.30;;;13.10;99.90;;;;;;5063539;28;20094;-46
2021/05/23 01:55:40;;;;;;;0.20;0.20;;;13.10;99.90;;;;;;5064181;28;20029;-47
2021/05/23 01:58:06;;;;;;;0.30;0.30;;;12.90;99.90;;;;;;5064953;28;20048;-46
2021/05/23 02:00:36;;;;;;;0.63;0.40;;;13.00;99.90;;;;;;5064713;28;20017;-46
2021/05/23 02:03:06;;;;;;;0.20;0.20;;;13.00;99.90;;;;;;5065144;28;20407;-46
2021/05/23 02:05:41;;;;;;;0.20;0.20;;;13.00;99.90;;;;;;5063858;28;20457;-46
2021/05/23 02:08:08;;;;;;;0.30;0.30;;;12.80;99.90;;;;;;5063893;28;20439;-47
2021/05/23 02:10:34;;;;;;;1.30;0.40;;;12.80;99.90;;;;;;5064871;28;20119;-47
2021/05/23 02:13:02;;;;;;;0.38;0.30;;;12.90;99.90;;;;;;5064524;28;20035;-47
2021/05/23 02:15:28;;;;;;;0.40;0.40;;;12.90;99.90;;;;;;5063356;28;20510;-47
2021/05/23 02:17:53;;;;;;;0.30;0.30;;;12.70;99.90;;;;;;5065386;28;20410;-46
2021/05/23 02:20:23;;;;;;;0.38;0.30;;;12.90;99.90;;;;;;5064982;28;20021;-46
2021/05/23 02:22:50;;;;;;;0.20;0.20;;;12.80;99.90;;;;;;5064224;28;20028;-47
2021/05/23 02:25:18;;;;;;;0.25;0.20;;;12.80;99.90;;;;;;5063478;28;20028;-47
2021/05/23 02:27:50;;;;;;;0.38;0.30;;;12.80;99.90;;;;;;5064697;28;20075;-47
2021/05/23 02:30:18;;;;;;;2.83;0.30;;;12.80;99.90;;;;;;5067217;28;20509;-46
2021/05/23 02:32:45;;;;;;;0.75;0.40;;;12.80;99.90;;;;;;5068560;28;20426;-45
2021/05/23 02:35:12;;;;;;;0.30;0.30;;;12.80;99.90;;;;;;5067120;28;20029;-46
2021/05/23 02:37:38;;;;;;;0.32;0.30;;;12.90;99.90;;;;;;5068233;28;20061;-47
2021/05/23 02:40:06;;;;;;;0.28;0.28;;;12.80;99.90;;;;;;5067875;28;20028;-45
2021/05/23 02:42:35;;;;;;;0.30;0.30;;;12.70;99.90;;;;;;5068268;28;20063;-48
2021/05/23 02:45:04;;;;;;;0.30;0.30;;;12.80;99.90;;;;;;5066862;28;20111;-46
2021/05/23 02:47:29;;;;;;;0.20;0.20;;;12.80;99.90;;;;;;5067276;28;20094;-49
2021/05/23 02:49:55;;;;;;;0.35;0.35;;;12.70;99.90;;;;;;5066756;28;20021;-47
2021/05/23 02:52:21;;;;;;;0.60;0.45;;;12.60;99.90;;;;;;5068710;28;20036;-46
2021/05/23 02:54:49;;;;;;;0.28;0.28;;;12.50;99.90;;;;;;5067293;28;20563;-46
2021/05/23 02:57:15;;;;;;;0.30;0.30;;;12.60;99.90;;;;;;5068500;28;20024;-50
2021/05/23 02:59:40;;;;;;;0.63;0.30;;;12.50;99.90;;;;;;5067737;28;20024;-49
2021/05/23 03:02:06;;;;;;;0.20;0.20;;;12.40;99.90;;;;;;5066260;28;20020;-48
2021/05/23 03:04:32;;;;;;;1.67;0.82;;;12.30;99.90;;;;;;5066449;28;20270;-48
2021/05/23 03:06:58;;;;;;;0.40;0.40;;;12.40;99.90;;;;;;5067412;28;20495;-49
2021/05/23 03:09:24;;;;;;;0.73;0.20;;;12.30;99.90;;;;;;5067811;28;20494;-46
2021/05/23 03:11:51;;;;;;;0.38;0.38;;;12.30;99.90;;;;;;5068355;28;20035;-46
2021/05/23 03:14:18;;;;;;;0.75;0.20;;;12.20;99.90;;;;;;5066433;28;20052;-46
2021/05/23 03:16:45;;;;;;;0.28;0.25;;;12.30;99.90;;;;;;5067494;28;20380;-47
2021/05/23 03:19:11;;;;;;;0.60;0.22;;;12.50;99.90;;;;;;5066444;28;20025;-45
2021/05/23 03:21:37;;;;;;;0.30;0.30;;;12.50;99.90;;;;;;5066625;28;20415;-46
2021/05/23 03:24:03;;;;;;;0.40;0.40;;;12.30;99.90;;;;;;5047247;28;20025;-47
2021/05/23 03:26:29;;;;;;;0.43;0.30;;;12.30;99.90;;;;;;5064146;28;20028;-46
2021/05/23 03:28:55;;;;;;;0.50;0.50;;;12.30;99.90;;;;;;5066592;28;20036;-47
2021/05/23 03:31:21;;;;;;;0.40;0.40;;;12.30;99.90;;;;;;5066481;28;20028;-46
2021/05/23 03:33:47;;;;;;;0.38;0.35;;;12.40;99.90;;;;;;5067588;28;20044;-47
2021/05/23 03:36:13;;;;;;;0.30;0.30;;;12.30;99.90;;;;;;5064932;28;20415;-45
2021/05/23 03:38:41;;;;;;;0.60;0.50;;;12.20;99.90;;;;;;5067194;28;20033;-45
2021/05/23 03:41:07;;;;;;;0.30;0.30;;;12.10;99.90;;;;;;5065870;28;20020;-46
2021/05/23 03:43:34;;;;;;;0.70;0.30;;;12.00;99.90;;;;;;5067069;28;20733;-46
2021/05/23 03:45:59;;;;;;;0.40;0.40;;;12.00;99.90;;;;;;5066514;28;20078;-45
2021/05/23 03:48:25;;;;;;;0.40;0.40;;;11.90;99.90;;;;;;5066048;28;20495;-46
2021/05/23 03:50:50;;;;;;;0.30;0.30;;;11.80;99.90;;;;;;5066397;28;20142;-46
2021/05/23 03:53:16;;;;;;;0.30;0.30;;;11.70;99.90;;;;;;5066641;28;20032;-46
2021/05/23 03:55:42;;;;;;;0.30;0.30;;;11.70;99.90;;;;;;5066460;28;20036;-47
2021/05/23 03:58:09;;;;;;;0.30;0.30;;;11.80;99.90;;;;;;5066505;28;20570;-48
2021/05/23 04:00:36;;;;;;;0.30;0.30;;;11.80;99.90;;;;;;5066760;28;20021;-46
2021/05/23 04:03:03;;;;;;;0.38;0.38;;;11.80;99.90;;;;;;5065367;28;20028;-46
2021/05/23 04:05:29;;;;;;;0.40;0.30;;;11.80;99.90;;;;;;5065802;28;20051;-46
2021/05/23 04:07:57;;;;;;;1.08;0.30;;;11.70;99.90;;;;;;5066658;28;20038;-46
2021/05/23 04:10:29;;;;;;;0.52;0.38;;;11.70;99.90;;;;;;5066370;28;20070;-45
2021/05/23 04:12:57;;;;;;;1.67;0.70;;;11.70;99.90;;;;;;5066208;28;20037;-46
2021/05/23 04:15:24;;;;;;;2.03;1.05;;;11.80;99.90;;;;;;5064863;28;20032;-46
2021/05/23 04:17:51;;;;;;;1.80;1.00;;;11.60;99.90;;;;;;5066828;28;20056;-46
2021/05/23 04:20:22;;;;;;;0.90;0.63;;;11.40;99.90;;;;;;5066132;28;20028;-46
2021/05/23 04:22:50;;;;;;;0.90;0.60;;;11.50;99.90;;;;;;5064483;28;20414;-49
2021/05/23 04:25:18;;;;;;;0.60;0.50;;;11.60;99.90;;;;;;5064727;28;20020;-47
2021/05/23 04:27:47;;;;;;;0.40;0.40;;;11.50;99.90;;;;;;5065173;28;20024;-50
2021/05/23 04:30:14;;;;;;;0.75;0.40;;;11.50;99.90;;;;;;5064889;28;20028;-46
2021/05/23 04:32:41;;;;;;;1.02;0.32;;;11.60;99.90;;;;;;5063606;28;20040;-47
2021/05/23 04:35:09;;;;;;;0.82;0.40;;;11.70;99.90;;;;;;5065405;28;20043;-47
2021/05/23 04:37:34;;;;;;;0.38;0.38;;;11.40;99.90;;;;;;5065456;28;20028;-47
2021/05/23 04:40:01;;;;;;;1.10;0.82;;;11.40;99.90;;;;;;5065887;28;20074;-49
2021/05/23 04:42:27;;;;;;;0.40;0.40;;;11.60;99.90;;;;;;5065419;28;20024;-47
2021/05/23 04:44:53;;;;;;;0.30;0.30;;;11.70;99.90;;;;;;5065128;28;20119;-49
2021/05/23 04:47:18;;;;;;;0.50;0.50;;;11.60;99.90;;;;;;5068053;28;20519;-46
2021/05/23 04:49:45;;;;;;;1.20;0.38;;;11.50;99.90;;;;;;5067218;28;20024;-50
2021/05/23 04:52:14;;;;;;;0.82;0.30;;;11.40;99.90;;;;;;5066999;28;20376;-50
2021/05/23 04:54:40;;;;;;;0.35;0.35;;;11.50;99.90;;;;;;5065569;28;20383;-47
2021/05/23 04:57:06;;;;;;;0.32;0.32;;;11.50;99.90;;;;;;5066590;28;20054;-47
2021/05/23 04:59:33;;;;;;;0.43;0.30;;;11.50;99.90;;;;;;5067216;28;20032;-47
2021/05/23 05:01:58;;;;;;;0.30;0.30;;;11.50;99.90;;;;;;5065948;28;20020;-50
2021/05/23 05:04:24;;;;;;;2.05;0.20;;;11.60;99.90;;;;;;5067327;28;20435;-46
2021/05/23 05:06:50;;;;;;;0.30;0.30;;;11.60;99.90;;;;;;5082097;28;20458;-49
2021/05/23 05:09:16;;;;;;;0.20;0.20;;;11.70;99.90;;;;;;5066852;28;20036;-50
2021/05/23 05:11:42;;;;;;;0.40;0.30;;;11.80;99.90;;;;;;5064909;28;20081;-47
2021/05/23 05:14:12;;;;;;;0.30;0.30;;;11.80;99.90;;;;;;5067394;28;20029;-50
2021/05/23 05:16:39;;;;;;;0.25;0.25;;;11.80;99.90;;;;;;5062052;28;20036;-46
2021/05/23 05:19:06;;;;;;;1.25;0.45;;;11.90;99.90;;;;;;5067144;28;20057;-46
2021/05/23 05:21:31;;;;;;;0.30;0.30;;;11.90;99.90;;;;;;5067112;28;20052;-46
2021/05/23 05:23:57;;;;;;;1.55;0.30;;;12.00;99.90;;;;;;5066511;28;20423;-46
2021/05/23 05:26:23;;;;;;;3.85;0.30;;;12.00;99.90;;;;;;5065744;28;20039;-47
2021/05/23 05:28:49;;;;;;;0.40;0.30;;;12.10;99.90;;;;;;5065983;28;20033;-49
2021/05/23 05:31:15;;;;;;;0.80;0.40;;;12.10;99.90;;;;;;5066613;28;20024;-47
2021/05/23 05:33:41;;;;;;;0.75;0.52;;;11.90;99.90;;;;;;5065997;28;20554;-49
2021/05/23 05:36:06;;;;;;;2.60;0.70;;;12.00;99.90;;;;;;5065819;28;20020;-49
2021/05/23 05:38:32;;;;;;;1.38;0.57;;;12.00;99.90;;;;;;5065874;28;20036;-47
2021/05/23 05:40:59;;;;;;;0.68;0.40;;;12.00;99.90;;;;;;5066372;28;20104;-47
2021/05/23 05:43:25;;;;;;;0.73;0.50;;;12.10;99.90;;;;;;5066500;28;20588;-49
2021/05/23 05:45:51;;;;;;;1.58;0.60;;;12.10;99.90;;;;;;5066235;28;20095;-48
2021/05/23 05:48:17;;;;;;;1.58;0.47;;;12.20;99.90;;;;;;5064227;28;20070;-47
2021/05/23 05:50:43;;;;;;;0.63;0.40;;;12.30;99.90;;;;;;5066286;28;20028;-50
2021/05/23 05:53:09;;;;;;;0.40;0.40;;;12.40;99.90;;;;;;5067127;28;20028;-49
2021/05/23 05:55:34;;;;;;;0.50;0.30;;;12.40;99.90;;;;;;5068496;28;20497;-48
2021/05/23 05:58:00;;;;;;;0.28;0.28;;;12.40;99.90;;;;;;5065779;28;20025;-45
2021/05/23 06:00:26;;;;;;;0.35;0.35;;;12.40;99.90;;;;;;5064798;28;20033;-47
2021/05/23 06:02:53;;;;;;;1.35;0.50;;;12.40;99.90;;;;;;5063707;28;20032;-46
2021/05/23 06:05:18;;;;;;;0.85;0.47;;;12.40;99.90;;;;;;5068133;28;20064;-46
2021/05/23 06:07:46;;;;;;;1.00;0.40;;;12.50;99.90;;;;;;5067868;28;20048;-47
2021/05/23 06:10:13;;;;;;;0.47;0.28;;;12.50;99.90;;;;;;5068852;28;20024;-46
2021/05/23 06:12:39;;;;;;;0.80;0.38;;;12.60;99.90;;;;;;5068918;28;20228;-47
2021/05/23 06:15:05;;;;;;;0.30;0.30;;;12.50;99.90;;;;;;5069402;28;20534;-46
2021/05/23 06:17:32;;;;;;;0.40;0.40;;;12.60;99.90;;;;;;5068133;28;20032;-46
2021/05/23 06:19:59;;;;;;;0.30;0.30;;;12.70;99.90;;;;;;5068801;28;20100;-46
2021/05/23 06:22:25;;;;;;;0.30;0.30;;;12.70;99.90;;;;;;5068711;28;20017;-47
2021/05/23 06:24:51;;;;;;;0.30;0.28;;;12.70;99.90;;;;;;5066268;28;20263;-47
2021/05/23 06:27:17;;;;;;;0.20;0.20;;;12.80;99.90;;;;;;5066014;28;20028;-49
2021/05/23 06:29:45;;;;;;;0.35;0.32;;;12.80;99.90;;;;;;5056965;28;20024;-47
2021/05/23 06:32:11;;;;;;;0.30;0.30;;;12.90;99.90;;;;;;5068846;28;20028;-48
2021/05/23 06:34:37;;;;;;;0.20;0.20;;;13.00;99.90;;;;;;5057505;28;20035;-47
2021/05/23 06:37:03;;;;;;;0.40;0.30;;;13.00;99.90;;;;;;5061306;28;20032;-47
2021/05/23 06:39:28;;;;;;;1.08;0.52;;;13.00;99.90;;;;;;5066964;28;20028;-47
2021/05/23 06:41:54;;;;;;;0.20;0.20;;;12.90;99.90;;;;;;5069123;28;20029;-49
2021/05/23 06:44:20;;;;;;;0.30;0.30;;;13.10;99.90;;;;;;5069378;28;20021;-49
2021/05/23 06:46:46;;;;;;;0.30;0.30;;;13.20;99.90;;;;;;5067301;28;20027;-50
2021/05/23 06:49:12;;;;;;;1.25;0.30;;;13.10;99.90;;;;;;5069416;28;20078;-49
2021/05/23 06:51:38;;;;;;;0.38;0.38;;;13.10;99.90;;;;;;5056204;28;20033;-48
2021/05/23 06:54:05;;;;;;;0.75;0.30;;;13.20;99.90;;;;;;5065518;28;20021;-46
2021/05/23 06:56:31;;;;;;;0.30;0.30;;;13.20;99.90;;;;;;5069498;28;20029;-47
2021/05/23 06:58:57;;;;;;;1.95;0.30;;;13.20;99.90;;;;;;5068280;28;20038;-50
2021/05/23 07:01:23;;;;;;;0.30;0.30;;;13.20;99.90;;;;;;5065829;28;20028;-48
2021/05/23 07:03:48;;;;;;;0.32;0.32;;;13.30;99.90;;;;;;5048936;28;20099;-47
2021/05/23 07:06:14;;;;;;;0.68;0.28;;;13.30;99.90;;;;;;5055338;28;20029;-50
2021/05/23 07:08:40;;;;;;;0.20;0.20;;;13.30;99.90;;;;;;5067004;28;20082;-50
2021/05/23 07:11:06;;;;;;;0.50;0.20;;;13.10;99.90;;;;;;5067430;28;20048;-49
2021/05/23 07:13:32;;;;;;;0.85;0.40;;;13.20;99.90;;;;;;5069074;28;20078;-48
2021/05/23 07:15:57;;;;;;;0.38;0.20;;;13.30;99.90;;;;;;5066635;28;20040;-47
2021/05/23 07:18:23;;;;;;;0.65;0.20;;;13.40;99.90;;;;;;5048595;28;20032;-49
2021/05/23 07:20:49;;;;;;;0.30;0.30;;;13.40;99.90;;;;;;5052120;28;20078;-48
2021/05/23 07:23:15;;;;;;;0.20;0.20;;;13.30;99.90;;;;;;5057007;28;20085;-48
2021/05/23 07:25:42;;;;;;;0.20;0.20;;;13.30;99.90;;;;;;5068137;28;20028;-48
2021/05/23 07:28:08;;;;;;;0.20;0.20;;;13.40;99.90;;;;;;5062116;28;20097;-47
2021/05/23 07:30:34;;;;;;;1.08;0.25;;;13.40;99.90;;;;;;5060837;28;20403;-48
2021/05/23 07:33:00;;;;;;;0.30;0.30;;;13.40;99.90;;;;;;5068695;28;20020;-47
2021/05/23 07:35:26;;;;;;;0.43;0.20;;;13.40;99.90;;;;;;5067694;28;20040;-46
2021/05/23 07:37:52;;;;;;;0.20;0.20;;;13.60;99.90;;;;;;5066682;28;20119;-46
2021/05/23 07:40:18;;;;;;;0.20;0.20;;;13.50;99.90;;;;;;5066808;28;20166;-49
2021/05/23 07:42:45;;;;;;;0.20;0.20;;;13.60;99.90;;;;;;5063429;28;20020;-47
2021/05/23 07:45:13;;;;;;;0.38;0.28;;;13.60;99.90;;;;;;5068505;28;20020;-46
2021/05/23 07:47:39;;;;;;;0.40;0.20;;;13.80;99.90;;;;;;5067629;28;20514;-45
2021/05/23 07:50:08;;;;;;;0.85;0.50;;;13.80;99.90;;;;;;5066950;28;20020;-47
2021/05/23 07:52:34;;;;;;;0.30;0.20;;;13.80;99.90;;;;;;5063022;28;20398;-49
2021/05/23 07:55:00;;;;;;;0.40;0.40;;;13.80;99.90;;;;;;5061541;28;20033;-47
2021/05/23 07:57:25;;;;;;;0.90;0.30;;;13.70;99.90;;;;;;5062994;28;20021;-45
2021/05/23 07:59:52;;;;;;;0.38;0.20;;;13.80;99.90;;;;;;5063806;28;20028;-48
2021/05/23 08:02:18;;;;;;;0.20;0.20;;;13.90;99.90;;;;;;5067575;28;20040;-50
2021/05/23 08:04:43;;;;;;;2.35;0.30;;;13.90;99.90;;;;;;5062086;28;20029;-46
2021/05/23 08:07:09;;;;;;;1.55;0.30;;;13.90;99.90;;;;;;5061861;28;20035;-48
2021/05/23 08:09:35;;;;;;;1.85;0.25;;;14.00;99.90;;;;;;5062288;28;20501;-48
2021/05/23 08:12:01;;;;;;;0.43;0.25;;;13.90;99.90;;;;;;5060331;28;20028;-48
2021/05/23 08:14:26;;;;;;;0.22;0.20;;;14.00;99.90;;;;;;5061839;28;20033;-46
2021/05/23 08:16:52;;;;;;;0.30;0.30;;;14.10;99.90;;;;;;5060343;28;20563;-46
2021/05/23 08:19:19;;;;;;;0.57;0.20;;;14.10;99.90;;;;;;5061735;28;20521;-47
2021/05/23 08:21:45;;;;;;;0.20;0.20;;;14.10;99.90;;;;;;5061835;28;20020;-47
2021/05/23 08:24:12;;;;;;;0.20;0.20;;;14.10;99.90;;;;;;5061552;28;20082;-46
2021/05/23 08:26:38;;;;;;;0.73;0.20;;;14.00;99.90;;;;;;5060206;28;20025;-45
2021/05/23 08:29:05;;;;;;;0.20;0.20;;;14.10;99.90;;;;;;5060711;28;20077;-46
2021/05/23 08:31:31;;;;;;;0.20;0.20;;;14.20;99.90;;;;;;5060079;28;20468;-46
2021/05/23 08:33:57;;;;;;;0.20;0.20;;;14.10;99.90;;;;;;5061185;28;20341;-47
2021/05/23 08:36:22;;;;;;;0.60;0.20;;;14.20;99.90;;;;;;5061540;28;20519;-47
2021/05/23 08:38:48;;;;;;;0.20;0.20;;;14.20;99.90;;;;;;5060683;28;20800;-47
2021/05/23 08:41:16;;;;;;;0.17;0.17;;;14.30;99.90;;;;;;5061835;28;20630;-49
2021/05/23 08:43:43;;;;;;;0.32;0.20;;;14.30;99.90;;;;;;5060777;28;20020;-51
2021/05/23 08:46:09;;;;;;;0.45;0.30;;;14.20;99.90;;;;;;5061290;28;20028;-52
2021/05/23 08:48:34;;;;;;;0.20;0.20;;;14.30;99.90;;;;;;5061390;28;20036;-52
2021/05/23 08:51:00;;;;;;;0.47;0.20;;;14.50;99.90;;;;;;5061166;28;20036;-52
2021/05/23 08:53:26;;;;;;;0.20;0.20;;;14.40;99.90;;;;;;5059641;28;20124;-52
2021/05/23 08:55:53;;;;;;;0.20;0.20;;;14.50;99.90;;;;;;5062880;28;20108;-49
2021/05/23 08:58:18;;;;;;;0.20;0.20;;;14.60;99.90;;;;;;5062516;28;20040;-54
2021/05/23 09:00:44;;;;;;;0.70;0.20;;;14.70;99.90;;;;;;5063118;28;20031;-55
2021/05/23 09:03:12;;;;;;;0.40;0.28;;;14.70;99.90;;;;;;5067208;28;20407;-55
2021/05/23 09:05:44;;;;;;;1.35;0.30;;;14.60;99.90;;;;;;5066630;28;20027;-55
2021/05/23 09:08:28;;;;;;;0.25;0.20;;;14.60;99.90;;;;;;5067049;28;20024;-55
2021/05/23 09:11:00;;;;;;;0.75;0.35;;;14.40;99.90;;;;;;5053779;28;20158;-55
2021/05/23 09:13:37;;;;;;;0.20;0.20;;;14.60;99.90;;;;;;5068274;28;20045;-54
2021/05/23 09:16:08;;;;;;;0.20;0.20;;;14.80;99.90;;;;;;5057089;28;20025;-55
2021/05/23 09:18:43;;;;;;;0.20;0.20;;;14.80;99.90;;;;;;5062579;28;20028;-54
2021/05/23 09:21:10;;;;;;;0.22;0.20;;;14.90;99.90;;;;;;5061019;28;20534;-55
2021/05/23 09:23:49;;;;;;;0.22;0.20;;;15.00;99.90;;;;;;5059207;28;20037;-54
2021/05/23 09:26:22;;;;;;;0.57;0.20;;;15.20;99.90;;;;;;5058513;28;20063;-54
2021/05/23 09:28:49;;;;;;;0.28;0.20;;;15.20;99.90;;;;;;5059240;28;20033;-54
2021/05/23 09:31:18;;;;;;;0.30;0.20;;;14.90;99.90;;;;;;5061476;28;20031;-54
2021/05/23 09:33:47;;;;;;;1.30;0.30;;;15.00;99.90;;;;;;5061480;28;20033;-55
2021/05/23 09:36:14;;;;;;;0.57;0.30;;;15.10;99.90;;;;;;5061602;28;20094;-55
2021/05/23 09:38:49;;;;;;;0.30;0.30;;;14.90;99.90;;;;;;5060300;28;20051;-56
2021/05/23 09:41:25;;;;;;;0.50;0.32;;;15.00;99.90;;;;;;5058234;28;20040;-55
2021/05/23 09:44:07;;;;;;;0.90;0.30;;;15.00;99.90;;;;;;5058665;28;20051;-55
2021/05/23 09:46:33;;;;;;;0.38;0.32;;;15.20;99.90;;;;;;5059766;28;20017;-57
2021/05/23 09:48:59;;;;;;;0.20;0.20;;;15.10;99.90;;;;;;5066471;28;20051;-56
2021/05/23 09:51:25;;;;;;;0.38;0.20;;;15.20;99.90;;;;;;5064758;28;20425;-48
2021/05/23 09:54:00;;;;;;;0.35;0.20;;;15.50;99.90;;;;;;5058413;28;20027;-55
2021/05/23 09:56:33;;;;;;;0.25;0.20;;;15.40;99.90;;;;;;5060103;28;20558;-55
2021/05/23 09:58:59;;;;;;;0.80;0.20;;;15.40;99.90;;;;;;5060610;28;20028;-55
2021/05/23 10:01:28;;;;;;;0.35;0.20;;;15.60;99.90;;;;;;5051134;28;20079;-55
2021/05/23 10:03:56;;;;;;;1.10;0.30;;;15.60;99.90;;;;;;5047229;28;20060;-55
2021/05/23 10:06:26;;;;;;;0.40;0.22;;;15.60;99.90;;;;;;5066044;28;20021;-55
2021/05/23 10:08:52;;;;;;;0.20;0.20;;;15.60;99.90;;;;;;5050519;28;20407;-55
2021/05/23 10:11:18;;;;;;;0.28;0.28;;;15.50;99.90;;;;;;5062813;28;20035;-55
2021/05/23 10:13:44;;;;;;;0.20;0.20;;;15.60;99.90;;;;;;5045198;28;20037;-55
2021/05/23 10:16:10;;;;;;;0.20;0.20;;;15.90;99.90;;;;;;5045849;28;20033;-54
2021/05/23 10:18:37;;;;;;;0.30;0.30;;;16.00;99.90;;;;;;5045631;28;20025;-55
2021/05/23 10:21:03;;;;;;;0.98;0.30;;;16.20;99.90;;;;;;5046315;28;20036;-55
2021/05/23 10:23:36;;;;;;;0.20;0.20;;;16.20;99.90;;;;;;5059051;28;20044;-55
2021/05/23 10:26:08;;;;;;;0.88;0.38;;;16.50;99.90;;;;;;5062295;28;20383;-55
2021/05/23 10:28:45;;;;;;;0.20;0.20;;;16.40;99.90;;;;;;5067271;28;20036;-55
2021/05/23 10:31:11;;;;;;;0.30;0.20;;;16.40;99.90;;;;;;5063740;28;20036;-55
2021/05/23 10:33:49;;;;;;;0.20;0.20;;;16.60;99.90;;;;;;5061347;28;20033;-57
2021/05/23 10:36:15;;;;;;;0.20;0.20;;;16.40;99.90;;;;;;5045538;28;20466;-54
2021/05/23 10:38:40;;;;;;;0.30;0.30;;;16.40;99.90;;;;;;5052907;28;20116;-54
2021/05/23 10:41:07;;;;;;;0.22;0.20;;;16.50;99.90;;;;;;5065751;28;20023;-54
2021/05/23 10:43:36;;;;;;;0.63;0.28;;;16.40;99.90;;;;;;5045785;28;20029;-55
2021/05/23 10:46:10;;;;;;;0.20;0.20;;;16.70;99.90;;;;;;5059344;28;20032;-54
2021/05/23 10:48:37;;;;;;;1.08;0.20;;;16.50;99.90;;;;;;5062130;28;20029;-55
2021/05/23 10:51:13;;;;;;;0.40;0.40;;;16.20;99.90;;;;;;5068083;28;20028;-55
2021/05/23 10:53:40;;;;;;;0.95;0.30;;;16.30;99.90;;;;;;5068455;28;20024;-56
2021/05/23 10:56:05;;;;;;;0.75;0.38;;;16.20;99.90;;;;;;5082101;28;20035;-55
2021/05/23 10:58:31;;;;;;;0.43;0.30;;;16.30;99.90;;;;;;5074965;28;21457;-55
2021/05/23 11:00:59;;;;;;;0.20;0.20;;;16.70;99.90;;;;;;5061504;28;20036;-54
2021/05/23 11:03:26;;;;;;;0.20;0.20;;;16.70;99.90;;;;;;5066766;28;20032;-56
2021/05/23 11:06:01;;;;;;;0.28;0.20;;;16.60;99.90;;;;;;5074925;28;20032;-55
2021/05/23 11:08:33;;;;;;;;;;;16.90;99.90;;;;;;5079660;28;20028;-55
2021/05/23 11:11:00;;;;;;;0.45;0.30;;;16.90;99.90;;;;;;5059760;28;19917;-55
2021/05/23 11:13:34;;;;;;;0.43;0.30;;;16.60;99.90;;;;;;5061664;28;20017;-55
2021/05/23 11:16:19;;;;;;;0.20;0.20;;;16.80;99.90;;;;;;5062988;28;20028;-56
2021/05/23 11:18:46;;;;;;;0.30;0.30;;;17.30;99.90;;;;;;5062150;28;20037;-54
2021/05/23 11:21:14;;;;;;;0.90;0.30;;;17.20;99.90;;;;;;5062394;28;20036;-55
2021/05/23 11:23:51;;;;;;;1.20;0.30;;;17.30;99.90;;;;;;5062656;28;20107;-55
2021/05/23 11:26:19;;;;;;;0.38;0.20;;;17.30;99.90;;;;;;5059215;28;20025;-55
2021/05/23 11:28:57;;;;;;;0.20;0.20;;;17.30;99.90;;;;;;5062024;28;20059;-55
2021/05/23 11:31:31;;;;;;;0.20;0.20;;;17.40;99.90;;;;;;5062705;28;20052;-55
2021/05/23 11:33:57;;;;;;;0.43;0.30;;;17.40;99.90;;;;;;5061825;28;20063;-55
2021/05/23 11:36:29;;;;;;;0.30;0.30;;;17.50;99.90;;;;;;5063446;28;20028;-55
2021/05/23 11:39:00;;;;;;;0.65;0.50;;;17.80;99.90;;;;;;5060981;28;20860;-55
2021/05/23 11:41:36;;;;;;;1.30;0.40;;;17.70;99.90;;;;;;5061618;28;20027;-55
2021/05/23 11:44:05;;;;;;;0.77;0.50;;;17.80;99.90;;;;;;5062645;28;20024;-55
2021/05/23 11:46:31;;;;;;;0.43;0.30;;;17.90;99.90;;;;;;5061943;28;20029;-56
2021/05/23 11:48:57;;;;;;;0.20;0.20;;;18.20;99.90;;;;;;5055618;28;20031;-56
2021/05/23 11:51:29;;;;;;;3.17;0.88;;;18.20;99.90;;;;;;5068144;28;20075;-54
2021/05/23 11:54:04;;;;;;;0.55;0.30;;;17.90;99.90;;;;;;5059614;28;20133;-56
2021/05/23 11:56:31;;;;;;;0.90;0.40;;;17.90;99.90;;;;;;5062639;28;20816;-55
2021/05/23 11:59:00;;;;;;;1.00;0.30;;;17.80;99.90;;;;;;5052216;28;20028;-55
2021/05/23 12:01:31;;;;;;;3.90;0.60;;;18.00;99.90;;;;;;5046825;28;20044;-55
2021/05/23 12:04:12;;;;;;;5.22;0.47;;;17.90;99.90;;;;;;5047651;28;20379;-54
2021/05/23 12:06:49;;;;;;;0.35;0.35;;;18.00;99.90;;;;;;5045727;28;20028;-55
2021/05/23 12:09:37;;;;;;;1.35;0.50;;;18.20;99.90;;;;;;5046431;28;20057;-55
2021/05/23 12:12:08;;;;;;;1.65;0.50;;;18.30;99.90;;;;;;5046035;28;20044;-55
2021/05/23 12:14:36;;;;;;;0.82;0.60;;;18.10;99.90;;;;;;5047008;28;20031;-54
2021/05/23 12:17:19;;;;;;;0.40;0.32;;;18.00;99.90;;;;;;5045682;28;20145;-55
2021/05/23 12:19:52;;;;;;;0.38;0.35;;;18.20;99.90;;;;;;5045781;28;20400;-55
2021/05/23 12:22:28;;;;;;;1.70;0.40;;;18.50;99.90;;;;;;5046085;28;20039;-54
2021/05/23 12:25:04;;;;;;;2.05;0.50;;;18.90;99.90;;;;;;5045881;28;20032;-55
2021/05/23 12:27:45;;;;;;;0.20;0.20;;;19.20;99.90;;;;;;5046179;28;20059;-54
2021/05/23 12:30:16;;;;;;;0.73;0.30;;;19.40;99.90;;;;;;5045392;28;20025;-54
2021/05/23 12:33:06;;;;;;;0.38;0.30;;;19.50;99.90;;;;;;5045378;28;20033;-54
2021/05/23 12:35:43;;;;;;;2.10;0.22;;;19.70;99.90;;;;;;5045288;28;20024;-54
2021/05/23 12:38:13;;;;;;;0.63;0.20;;;19.70;99.90;;;;;;5045918;28;20574;-56
2021/05/23 12:40:42;;;;;;;0.40;0.30;;;19.50;99.90;;;;;;5044896;28;20154;-55
2021/05/23 12:43:17;;;;;;;0.57;0.40;;;19.40;99.90;;;;;;5046336;28;20100;-55
2021/05/23 12:46:04;;;;;;;0.22;0.22;;;19.50;99.90;;;;;;5044956;28;20126;-54
2021/05/23 12:48:38;;;;;;;0.40;0.40;;;19.50;99.90;;;;;;5045253;28;20403;-55
2021/05/23 12:51:11;;;;;;;1.65;0.47;;;19.40;99.90;;;;;;5046410;28;20029;-55
2021/05/23 12:53:43;;;;;;;0.30;0.30;;;19.30;99.90;;;;;;5045718;28;20029;-54
2021/05/23 12:56:15;;;;;;;0.57;0.40;;;19.70;99.90;;;;;;5045744;28;20025;-55